Time;durP1;ratioP1;P1;durP2;ratioP2;P2;SDS_P1;SDS_P2;PMS_P1;PMS_P2;Temp;Humidity;BMP_temperature;BMP_pressure;BME280_temperature;BME280_humidity;BME280_pressure;Samples;Min_cycle;Max_cycle;Signal;HPM_P1;HPM_P2
2024/03/11 00:01:06;;;;;;;21.33;12.00;;;;;;;;;;5013068;28;20533;-59
2024/03/11 00:03:31;;;;;;;20.75;12.40;;;;;;;;;;5017395;28;20048;-58
2024/03/11 00:05:57;;;;;;;22.92;13.02;;;;;;;;;;5007479;28;20022;-58
2024/03/11 00:08:22;;;;;;;22.73;11.77;;;;;;;;;;5012418;28;20030;-58
2024/03/11 00:10:48;;;;;;;23.13;13.52;;;;;;;;;;5012654;28;20034;-58
2024/03/11 00:13:17;;;;;;;22.63;13.45;;;;;;;;;;5002077;28;20738;-59
2024/03/11 00:15:43;;;;;;;23.10;13.48;;;;;;;;;;5011004;28;20033;-59
2024/03/11 00:18:08;;;;;;;21.27;12.63;;;;;;;;;;5012419;28;20105;-59
2024/03/11 00:20:35;;;;;;;23.13;12.43;;;;;;;;;;5012878;28;20101;-57
2024/03/11 00:23:01;;;;;;;;;;;;;;;;;;5006481;28;20907;-58
2024/03/11 00:25:27;;;;;;;22.55;12.50;;;;;;;;;;5011748;28;19909;-60
2024/03/11 00:27:52;;;;;;;22.43;12.23;;;;;;;;;;5012529;28;20030;-59
2024/03/11 00:30:17;;;;;;;22.93;13.03;;;;;;;;;;5012163;28;20029;-59
2024/03/11 00:32:45;;;;;;;22.80;13.90;;;;;;;;;;5011527;28;20030;-60
2024/03/11 00:35:11;;;;;;;22.13;12.50;;;;;;;;;;5010658;28;20025;-59
2024/03/11 00:37:36;;;;;;;19.88;11.48;;;;;;;;;;5003871;28;20033;-60
2024/03/11 00:40:05;;;;;;;19.58;10.63;;;;;;;;;;5010544;28;20017;-58
2024/03/11 00:42:33;;;;;;;19.63;10.50;;;;;;;;;;5021491;28;20532;-58
2024/03/11 00:44:59;;;;;;;20.80;11.88;;;;;;;;;;5017056;28;20108;-59
2024/03/11 00:47:24;;;;;;;18.50;10.90;;;;;;;;;;5011860;28;20113;-58
2024/03/11 00:49:49;;;;;;;18.80;10.95;;;;;;;;;;5011723;28;20381;-57
2024/03/11 00:52:15;;;;;;;18.27;10.85;;;;;;;;;;5013074;28;20025;-57
2024/03/11 00:54:40;;;;;;;20.20;10.87;;;;;;;;;;5005520;28;20022;-58
2024/03/11 00:57:06;;;;;;;18.92;10.80;;;;;;;;;;5006942;28;20036;-57
2024/03/11 00:59:31;;;;;;;18.77;10.93;;;;;;;;;;5011799;28;20018;-57
2024/03/11 01:01:56;;;;;;;17.13;10.87;;;;;;;;;;5011156;28;20014;-58
2024/03/11 01:04:22;;;;;;;21.23;11.57;;;;;;;;;;4999344;28;20041;-58
2024/03/11 01:06:48;;;;;;;22.30;11.40;;;;;;;;;;5013406;28;20026;-57
2024/03/11 01:09:13;;;;;;;23.50;12.80;;;;;;;;;;5012263;28;20546;-58
2024/03/11 01:11:38;;;;;;;19.50;12.00;;;;;;;;;;5005506;28;20014;-58
2024/03/11 01:14:04;;;;;;;22.60;12.37;;;;;;;;;;5017139;28;20125;-58
2024/03/11 01:16:29;;;;;;;20.17;12.02;;;;;;;;;;5012871;28;20022;-59
2024/03/11 01:18:56;;;;;;;21.00;12.10;;;;;;;;;;5025172;28;20022;-57
2024/03/11 01:21:22;;;;;;;18.85;11.20;;;;;;;;;;5023265;28;20432;-58
2024/03/11 01:23:47;;;;;;;21.70;12.43;;;;;;;;;;5018813;28;20014;-59
2024/03/11 01:26:12;;;;;;;21.23;11.90;;;;;;;;;;5026751;28;20046;-58
2024/03/11 01:28:37;;;;;;;20.80;12.20;;;;;;;;;;5016547;28;20029;-58
2024/03/11 01:31:06;;;;;;;22.30;12.18;;;;;;;;;;5018661;28;20022;-57
2024/03/11 01:33:31;;;;;;;22.65;12.05;;;;;;;;;;5022854;28;20057;-57
2024/03/11 01:35:57;;;;;;;21.48;11.40;;;;;;;;;;5018523;28;20101;-58
2024/03/11 01:38:22;;;;;;;20.45;12.10;;;;;;;;;;5011502;28;20029;-57
2024/03/11 01:40:47;;;;;;;18.77;11.53;;;;;;;;;;5011371;28;20041;-59
2024/03/11 01:43:14;;;;;;;19.33;10.70;;;;;;;;;;5011950;28;20029;-57
2024/03/11 01:45:40;;;;;;;21.00;11.57;;;;;;;;;;4998552;28;20394;-58
2024/03/11 01:48:05;;;;;;;18.83;10.20;;;;;;;;;;5006080;28;20030;-57
2024/03/11 01:50:30;;;;;;;23.38;11.68;;;;;;;;;;5010536;28;20026;-58
2024/03/11 01:52:56;;;;;;;17.10;10.13;;;;;;;;;;5009695;28;20105;-58
2024/03/11 01:55:24;;;;;;;19.23;11.70;;;;;;;;;;5010704;28;20037;-58
2024/03/11 01:57:50;;;;;;;21.73;12.05;;;;;;;;;;5011521;28;20068;-58
2024/03/11 02:00:19;;;;;;;20.90;12.43;;;;;;;;;;5013675;28;20093;-59
2024/03/11 02:02:44;;;;;;;18.63;11.20;;;;;;;;;;5017368;28;20414;-59
2024/03/11 02:05:13;;;;;;;19.13;11.18;;;;;;;;;;5019438;28;20053;-58
2024/03/11 02:07:39;;;;;;;21.88;12.35;;;;;;;;;;5024362;28;20026;-58
2024/03/11 02:10:13;;;;;;;20.67;13.05;;;;;;;;;;5015138;28;20045;-57
2024/03/11 02:12:38;;;;;;;19.90;11.85;;;;;;;;;;5015829;28;20045;-58
2024/03/11 02:15:03;;;;;;;16.63;11.07;;;;;;;;;;5014425;28;20061;-59
2024/03/11 02:17:28;;;;;;;19.80;10.90;;;;;;;;;;5015418;28;20033;-58
2024/03/11 02:19:54;;;;;;;20.50;11.43;;;;;;;;;;5014969;28;20025;-59
2024/03/11 02:22:19;;;;;;;18.88;12.02;;;;;;;;;;5013791;28;20030;-58
2024/03/11 02:24:44;;;;;;;22.20;13.10;;;;;;;;;;5016663;28;20048;-57
2024/03/11 02:27:10;;;;;;;25.95;12.32;;;;;;;;;;5014787;28;20025;-58
2024/03/11 02:29:38;;;;;;;20.23;12.95;;;;;;;;;;5015627;28;20097;-60
2024/03/11 02:32:03;;;;;;;23.65;12.77;;;;;;;;;;5015028;28;20191;-59
2024/03/11 02:34:29;;;;;;;19.90;11.73;;;;;;;;;;4996843;28;20498;-59
2024/03/11 02:36:55;;;;;;;19.23;12.50;;;;;;;;;;5014969;28;20018;-60
2024/03/11 02:39:21;;;;;;;19.92;11.18;;;;;;;;;;5014965;28;20057;-57
2024/03/11 02:41:47;;;;;;;21.87;12.70;;;;;;;;;;5016113;28;20097;-58
2024/03/11 02:44:12;;;;;;;20.55;12.27;;;;;;;;;;5012969;28;20022;-59
2024/03/11 02:46:43;;;;;;;18.88;12.20;;;;;;;;;;5014147;28;20022;-57
2024/03/11 02:49:09;;;;;;;20.33;11.43;;;;;;;;;;5014356;28;20745;-58
2024/03/11 02:51:34;;;;;;;20.90;12.48;;;;;;;;;;5014437;28;20466;-57
2024/03/11 02:53:59;;;;;;;20.20;12.80;;;;;;;;;;5013637;28;20022;-57
2024/03/11 02:56:25;;;;;;;20.47;11.80;;;;;;;;;;5013821;28;20474;-58
2024/03/11 02:58:50;;;;;;;21.88;12.40;;;;;;;;;;5013795;28;20033;-58
2024/03/11 03:01:16;;;;;;;19.00;12.27;;;;;;;;;;5012887;28;20021;-58
2024/03/11 03:03:41;;;;;;;20.67;12.48;;;;;;;;;;4999842;28;20034;-58
2024/03/11 03:06:06;;;;;;;20.60;11.73;;;;;;;;;;4994512;28;20390;-59
2024/03/11 03:08:32;;;;;;;20.42;12.30;;;;;;;;;;4994682;28;20463;-57
2024/03/11 03:11:01;;;;;;;18.97;11.43;;;;;;;;;;5025428;28;20030;-58
2024/03/11 03:13:26;;;;;;;20.10;12.90;;;;;;;;;;5016739;28;20559;-59
2024/03/11 03:15:51;;;;;;;22.05;11.88;;;;;;;;;;5018113;28;20071;-59
2024/03/11 03:18:17;;;;;;;17.98;11.95;;;;;;;;;;5028801;28;20064;-60
2024/03/11 03:20:42;;;;;;;19.55;12.77;;;;;;;;;;5020775;28;20029;-59
2024/03/11 03:23:08;;;;;;;20.80;11.75;;;;;;;;;;5021616;28;20032;-58
2024/03/11 03:25:33;;;;;;;19.25;11.88;;;;;;;;;;5018679;28;20017;-59
2024/03/11 03:28:02;;;;;;;21.05;12.73;;;;;;;;;;5022878;28;20034;-59
2024/03/11 03:30:27;;;;;;;22.17;12.68;;;;;;;;;;5018931;28;20030;-59
2024/03/11 03:32:52;;;;;;;19.60;12.23;;;;;;;;;;5017847;28;20025;-57
2024/03/11 03:35:19;;;;;;;20.40;11.90;;;;;;;;;;5022542;28;20074;-58
2024/03/11 03:37:44;;;;;;;18.40;12.02;;;;;;;;;;5018769;28;20036;-60
2024/03/11 03:40:18;;;;;;;17.37;10.33;;;;;;;;;;5015200;28;20388;-58
2024/03/11 03:42:46;;;;;;;20.25;10.70;;;;;;;;;;5013332;28;20010;-58
2024/03/11 03:45:11;;;;;;;20.48;12.18;;;;;;;;;;5013033;28;20044;-57
2024/03/11 03:47:36;;;;;;;20.70;12.13;;;;;;;;;;5010833;28;20026;-59
2024/03/11 03:50:02;;;;;;;23.05;13.57;;;;;;;;;;5012039;28;20021;-59
2024/03/11 03:52:29;;;;;;;24.65;14.68;;;;;;;;;;5012931;28;20061;-60
2024/03/11 03:54:54;;;;;;;24.27;13.55;;;;;;;;;;5012709;28;20025;-59
2024/03/11 03:57:19;;;;;;;19.58;12.45;;;;;;;;;;5012790;28;20025;-58
2024/03/11 03:59:44;;;;;;;22.92;13.43;;;;;;;;;;5012003;28;20065;-57
2024/03/11 04:02:09;;;;;;;22.10;12.93;;;;;;;;;;5016713;28;20037;-58
2024/03/11 04:04:37;;;;;;;19.67;12.68;;;;;;;;;;5012199;28;20018;-59
2024/03/11 04:07:03;;;;;;;17.73;11.65;;;;;;;;;;5011198;28;20069;-58
2024/03/11 04:09:28;;;;;;;19.70;11.03;;;;;;;;;;5011801;28;20038;-58
2024/03/11 04:11:54;;;;;;;19.10;12.17;;;;;;;;;;5011703;28;20433;-58
2024/03/11 04:14:21;;;;;;;22.02;12.90;;;;;;;;;;5011973;28;20421;-59
2024/03/11 04:16:46;;;;;;;18.67;11.82;;;;;;;;;;5012540;28;20037;-59
2024/03/11 04:19:11;;;;;;;18.83;10.98;;;;;;;;;;5014907;28;20409;-59
2024/03/11 04:21:37;;;;;;;19.13;11.15;;;;;;;;;;4999679;28;20034;-58
2024/03/11 04:24:02;;;;;;;17.85;11.30;;;;;;;;;;5011181;28;20049;-58
2024/03/11 04:26:29;;;;;;;19.23;11.33;;;;;;;;;;5012416;28;20025;-58
2024/03/11 04:28:54;;;;;;;17.67;11.18;;;;;;;;;;5012115;28;20561;-60
2024/03/11 04:31:19;;;;;;;19.08;11.57;;;;;;;;;;5011678;28;20156;-58
2024/03/11 04:33:44;;;;;;;19.80;11.43;;;;;;;;;;5012350;28;20022;-59
2024/03/11 04:36:10;;;;;;;24.67;11.80;;;;;;;;;;5010164;28;20025;-59
2024/03/11 04:38:36;;;;;;;20.57;12.63;;;;;;;;;;5011907;28;20021;-58
2024/03/11 04:41:02;;;;;;;17.65;11.90;;;;;;;;;;5004709;28;20030;-59
2024/03/11 04:43:27;;;;;;;21.90;11.95;;;;;;;;;;5009745;28;20026;-57
2024/03/11 04:45:53;;;;;;;20.87;11.77;;;;;;;;;;5012133;28;20020;-58
2024/03/11 04:48:19;;;;;;;18.73;11.68;;;;;;;;;;5012443;28;20544;-59
2024/03/11 04:50:44;;;;;;;19.77;11.48;;;;;;;;;;5011980;28;20018;-60
2024/03/11 04:53:09;;;;;;;17.07;11.27;;;;;;;;;;5012117;28;20021;-58
2024/03/11 04:55:36;;;;;;;17.73;11.57;;;;;;;;;;5011300;28;20068;-58
2024/03/11 04:58:01;;;;;;;;;;;;;;;;;;5012217;28;20076;-59
2024/03/11 05:00:27;;;;;;;18.75;11.32;;;;;;;;;;5026858;28;19905;-60
2024/03/11 05:02:56;;;;;;;19.42;11.40;;;;;;;;;;4995299;28;20367;-58
2024/03/11 05:05:21;;;;;;;19.95;13.25;;;;;;;;;;4991545;28;20026;-58
2024/03/11 05:07:46;;;;;;;16.90;10.87;;;;;;;;;;5006493;28;20087;-57
2024/03/11 05:10:12;;;;;;;21.53;12.33;;;;;;;;;;5006256;28;20501;-58
2024/03/11 05:12:37;;;;;;;16.90;11.23;;;;;;;;;;5002011;28;20018;-58
2024/03/11 05:15:05;;;;;;;18.48;12.18;;;;;;;;;;5011176;28;20029;-59
2024/03/11 05:17:30;;;;;;;20.23;11.98;;;;;;;;;;5010948;28;20022;-58
2024/03/11 05:19:55;;;;;;;18.77;11.80;;;;;;;;;;5011164;28;20390;-58
2024/03/11 05:22:23;;;;;;;17.38;10.80;;;;;;;;;;5010004;28;20109;-57
2024/03/11 05:24:48;;;;;;;17.63;10.63;;;;;;;;;;5010549;28;20080;-58
2024/03/11 05:27:13;;;;;;;21.20;13.00;;;;;;;;;;5005203;28;20507;-58
2024/03/11 05:29:38;;;;;;;17.52;11.23;;;;;;;;;;5006575;28;20030;-58
2024/03/11 05:32:04;;;;;;;23.05;12.43;;;;;;;;;;5010426;28;20041;-58
2024/03/11 05:34:29;;;;;;;19.97;12.27;;;;;;;;;;5014505;28;20785;-59
2024/03/11 05:36:54;;;;;;;19.43;12.07;;;;;;;;;;5013078;28;20030;-61
2024/03/11 05:39:20;;;;;;;22.53;12.20;;;;;;;;;;5010634;28;20029;-57
2024/03/11 05:41:45;;;;;;;22.08;12.82;;;;;;;;;;5010581;28;20033;-58
2024/03/11 05:44:10;;;;;;;23.50;14.47;;;;;;;;;;5009422;28;20503;-58
2024/03/11 05:46:35;;;;;;;23.13;13.90;;;;;;;;;;5013966;28;20091;-57
2024/03/11 05:49:00;;;;;;;22.90;13.37;;;;;;;;;;5015273;28;20034;-61
2024/03/11 05:51:28;;;;;;;24.93;13.10;;;;;;;;;;5003963;28;20504;-58
2024/03/11 05:53:56;;;;;;;19.85;12.50;;;;;;;;;;5022512;28;20030;-59
2024/03/11 05:56:22;;;;;;;22.35;12.73;;;;;;;;;;5008950;28;20014;-59
2024/03/11 05:58:47;;;;;;;22.10;12.05;;;;;;;;;;5007237;28;20540;-59
2024/03/11 06:01:13;;;;;;;23.63;12.40;;;;;;;;;;5006860;28;20026;-60
2024/03/11 06:03:38;;;;;;;22.55;13.25;;;;;;;;;;5014781;28;20026;-60
2024/03/11 06:06:03;;;;;;;21.88;12.77;;;;;;;;;;5008451;28;20041;-61
2024/03/11 06:08:28;;;;;;;21.53;12.80;;;;;;;;;;5006608;28;20402;-61
2024/03/11 06:10:54;;;;;;;21.80;13.17;;;;;;;;;;5006851;28;20436;-60
2024/03/11 06:13:21;;;;;;;20.88;13.15;;;;;;;;;;5007159;28;20097;-60
2024/03/11 06:15:46;;;;;;;22.23;12.55;;;;;;;;;;4990932;28;20443;-61
2024/03/11 06:18:11;;;;;;;22.48;13.45;;;;;;;;;;5001579;28;20100;-60
2024/03/11 06:20:36;;;;;;;20.73;13.27;;;;;;;;;;5003766;28;20018;-60
2024/03/11 06:23:02;;;;;;;21.27;13.00;;;;;;;;;;5010630;28;20093;-62
2024/03/11 06:25:27;;;;;;;21.33;12.23;;;;;;;;;;5010201;28;20390;-60
2024/03/11 06:27:54;;;;;;;25.88;13.98;;;;;;;;;;5010465;28;20026;-60
2024/03/11 06:30:20;;;;;;;22.30;15.00;;;;;;;;;;5011695;28;20033;-60
2024/03/11 06:32:48;;;;;;;23.58;13.45;;;;;;;;;;5010815;28;20445;-60
2024/03/11 06:35:13;;;;;;;23.55;13.75;;;;;;;;;;5013069;28;20030;-59
2024/03/11 06:37:39;;;;;;;27.13;14.95;;;;;;;;;;5005776;28;20033;-61
2024/03/11 06:40:05;;;;;;;28.80;15.43;;;;;;;;;;5002153;28;20025;-60
2024/03/11 06:42:30;;;;;;;26.70;14.77;;;;;;;;;;5005682;28;20034;-61
2024/03/11 06:44:55;;;;;;;30.17;17.75;;;;;;;;;;5013846;28;20033;-59
2024/03/11 06:47:20;;;;;;;28.50;16.65;;;;;;;;;;5013357;28;20026;-59
2024/03/11 06:49:46;;;;;;;28.30;15.90;;;;;;;;;;5009836;28;20033;-59
2024/03/11 06:52:11;;;;;;;26.08;15.32;;;;;;;;;;5013147;28;20073;-59
2024/03/11 06:54:36;;;;;;;22.73;14.05;;;;;;;;;;5013209;28;20024;-59
2024/03/11 06:57:01;;;;;;;27.40;14.90;;;;;;;;;;5012508;28;20430;-60
2024/03/11 06:59:28;;;;;;;30.20;15.57;;;;;;;;;;5014616;28;20022;-59
2024/03/11 07:01:53;;;;;;;27.85;15.20;;;;;;;;;;5019689;28;20014;-59
2024/03/11 07:04:20;;;;;;;27.40;14.70;;;;;;;;;;5011559;28;20037;-60
2024/03/11 07:06:45;;;;;;;23.85;13.65;;;;;;;;;;5005211;28;20034;-59
2024/03/11 07:09:11;;;;;;;25.37;14.20;;;;;;;;;;5014158;28;20042;-59
2024/03/11 07:11:37;;;;;;;25.85;13.73;;;;;;;;;;5014674;28;20021;-61
2024/03/11 07:14:03;;;;;;;24.15;14.35;;;;;;;;;;5011282;28;20470;-59
2024/03/11 07:16:31;;;;;;;21.48;12.80;;;;;;;;;;5008635;28;20041;-60
2024/03/11 07:18:56;;;;;;;22.65;12.52;;;;;;;;;;5013176;28;20667;-60
2024/03/11 07:21:27;;;;;;;20.35;12.20;;;;;;;;;;5013523;28;20076;-59
2024/03/11 07:23:53;;;;;;;18.58;12.15;;;;;;;;;;5006930;28;20072;-61
2024/03/11 07:26:18;;;;;;;19.63;10.88;;;;;;;;;;5012840;28;20014;-60
2024/03/11 07:28:44;;;;;;;19.08;11.95;;;;;;;;;;5012804;28;20033;-61
2024/03/11 07:31:09;;;;;;;18.50;12.13;;;;;;;;;;4993937;28;20159;-61
2024/03/11 07:33:36;;;;;;;16.40;10.75;;;;;;;;;;4994895;28;20022;-59
2024/03/11 07:36:03;;;;;;;18.45;11.13;;;;;;;;;;5010434;28;20104;-60
2024/03/11 07:38:28;;;;;;;18.45;11.27;;;;;;;;;;5017255;28;20025;-60
2024/03/11 07:40:53;;;;;;;18.33;11.03;;;;;;;;;;5012788;28;20026;-61
2024/03/11 07:43:18;;;;;;;17.73;11.30;;;;;;;;;;5017133;28;20022;-60
2024/03/11 07:45:44;;;;;;;18.38;11.07;;;;;;;;;;5014454;28;20115;-60
2024/03/11 07:48:15;;;;;;;18.15;10.95;;;;;;;;;;5012811;28;20038;-60
2024/03/11 07:50:40;;;;;;;17.88;10.63;;;;;;;;;;5013267;28;20045;-60
2024/03/11 07:53:05;;;;;;;17.83;11.30;;;;;;;;;;5013709;28;20115;-60
2024/03/11 07:55:33;;;;;;;19.40;11.70;;;;;;;;;;5018767;28;20037;-60
2024/03/11 07:57:58;;;;;;;19.02;10.93;;;;;;;;;;5011134;28;20041;-61
2024/03/11 08:00:29;;;;;;;21.42;11.82;;;;;;;;;;5009880;28;20022;-60
2024/03/11 08:02:55;;;;;;;21.23;11.45;;;;;;;;;;5007750;28;20034;-60
2024/03/11 08:05:21;;;;;;;19.60;11.85;;;;;;;;;;5012420;28;20022;-59
2024/03/11 08:07:47;;;;;;;17.90;11.32;;;;;;;;;;5013108;28;20363;-61
2024/03/11 08:10:12;;;;;;;20.25;12.23;;;;;;;;;;5013127;28;20036;-61
2024/03/11 08:12:38;;;;;;;18.20;11.50;;;;;;;;;;5013141;28;20052;-60
2024/03/11 08:15:06;;;;;;;15.85;10.40;;;;;;;;;;5013598;28;20025;-59
2024/03/11 08:17:31;;;;;;;15.57;9.48;;;;;;;;;;5011576;28;20024;-60
2024/03/11 08:19:56;;;;;;;14.13;8.50;;;;;;;;;;5015490;28;20018;-61
2024/03/11 08:22:21;;;;;;;9.57;5.50;;;;;;;;;;5014172;28;20033;-60
2024/03/11 08:24:47;;;;;;;9.13;4.80;;;;;;;;;;5012975;28;20029;-59
2024/03/11 08:27:15;;;;;;;9.05;5.03;;;;;;;;;;5012646;28;20076;-60
2024/03/11 08:29:40;;;;;;;9.77;4.47;;;;;;;;;;5013957;28;20037;-61
2024/03/11 08:32:05;;;;;;;8.32;4.35;;;;;;;;;;5016033;28;20427;-59
2024/03/11 08:34:31;;;;;;;8.47;4.87;;;;;;;;;;5011801;28;20022;-59
2024/03/11 08:36:56;;;;;;;8.43;4.80;;;;;;;;;;5013199;28;20014;-60
2024/03/11 08:39:22;;;;;;;8.20;4.30;;;;;;;;;;5012975;28;20437;-66
2024/03/11 08:41:47;;;;;;;7.97;4.70;;;;;;;;;;5013420;28;20113;-61
2024/03/11 08:44:14;;;;;;;8.63;4.78;;;;;;;;;;5016611;28;20057;-60
2024/03/11 08:46:39;;;;;;;7.30;4.00;;;;;;;;;;5012021;28;20026;-60
2024/03/11 08:49:04;;;;;;;8.10;4.40;;;;;;;;;;5012653;28;20084;-59
2024/03/11 08:51:30;;;;;;;7.72;4.50;;;;;;;;;;5012634;28;20028;-60
2024/03/11 08:53:55;;;;;;;8.47;4.70;;;;;;;;;;5012901;28;20046;-61
2024/03/11 08:56:21;;;;;;;7.90;4.00;;;;;;;;;;5012098;28;20109;-60
2024/03/11 08:58:50;;;;;;;6.72;3.63;;;;;;;;;;5015586;28;20041;-60
2024/03/11 09:01:15;;;;;;;8.27;4.50;;;;;;;;;;5016608;28;20030;-60
2024/03/11 09:03:41;;;;;;;7.57;3.92;;;;;;;;;;5012238;28;20099;-61
2024/03/11 09:06:06;;;;;;;8.33;4.00;;;;;;;;;;5010694;28;20018;-60
2024/03/11 09:08:31;;;;;;;7.63;4.03;;;;;;;;;;5007596;28;20486;-58
2024/03/11 09:10:57;;;;;;;9.98;4.28;;;;;;;;;;5021017;28;20026;-60
2024/03/11 09:13:22;;;;;;;9.43;4.70;;;;;;;;;;5015357;28;20016;-60
2024/03/11 09:15:49;;;;;;;7.05;3.90;;;;;;;;;;5012670;28;20393;-61
2024/03/11 09:18:15;;;;;;;8.90;4.40;;;;;;;;;;5012709;28;20026;-61
2024/03/11 09:20:40;;;;;;;7.40;4.13;;;;;;;;;;5016444;28;20421;-60
2024/03/11 09:23:08;;;;;;;7.63;3.77;;;;;;;;;;5011923;28;20104;-61
2024/03/11 09:25:33;;;;;;;7.95;3.83;;;;;;;;;;5011181;28;20501;-60
2024/03/11 09:28:01;;;;;;;6.90;3.70;;;;;;;;;;5012285;28;20022;-60
2024/03/11 09:30:28;;;;;;;7.00;3.72;;;;;;;;;;5012735;28;20022;-60
2024/03/11 09:32:55;;;;;;;6.28;3.40;;;;;;;;;;5014301;28;20014;-61
2024/03/11 09:35:20;;;;;;;6.40;3.38;;;;;;;;;;5012965;28;20018;-60
2024/03/11 09:37:46;;;;;;;6.43;2.90;;;;;;;;;;5014760;28;20048;-60
2024/03/11 09:40:13;;;;;;;7.68;3.50;;;;;;;;;;5015726;28;20029;-59
2024/03/11 09:42:39;;;;;;;5.50;2.78;;;;;;;;;;5013908;28;20069;-60
2024/03/11 09:45:07;;;;;;;5.28;2.70;;;;;;;;;;5014836;28;20025;-60
2024/03/11 09:47:33;;;;;;;5.10;2.35;;;;;;;;;;5019155;28;20022;-61
2024/03/11 09:49:59;;;;;;;6.07;3.00;;;;;;;;;;5020337;28;20022;-60
2024/03/11 09:52:25;;;;;;;6.63;3.03;;;;;;;;;;5017366;28;20381;-60
2024/03/11 09:54:51;;;;;;;5.28;2.35;;;;;;;;;;5011721;28;20037;-61
2024/03/11 09:57:18;;;;;;;5.32;2.45;;;;;;;;;;5016901;28;20397;-60
2024/03/11 09:59:45;;;;;;;6.53;2.50;;;;;;;;;;5024060;28;20018;-61
2024/03/11 10:02:14;;;;;;;4.85;2.20;;;;;;;;;;5018903;28;20466;-61
2024/03/11 10:04:39;;;;;;;4.35;1.73;;;;;;;;;;5011418;28;20409;-61
2024/03/11 10:07:05;;;;;;;4.50;2.00;;;;;;;;;;5011435;28;20030;-61
2024/03/11 10:09:31;;;;;;;;;;;;;;;;;;5012842;28;20034;-60
2024/03/11 10:12:09;;;;;;;9.13;1.80;;;;;;;;;;5012150;28;19996;-60
2024/03/11 10:14:35;;;;;;;4.95;1.88;;;;;;;;;;5013001;28;20025;-61
2024/03/11 10:17:28;;;;;;;3.78;1.50;;;;;;;;;;5012459;28;20014;-60
2024/03/11 10:19:59;;;;;;;4.30;1.58;;;;;;;;;;5012581;28;20097;-59
2024/03/11 10:22:28;;;;;;;4.53;1.55;;;;;;;;;;5013347;28;20425;-60
2024/03/11 10:24:55;;;;;;;3.85;1.50;;;;;;;;;;5019505;28;20089;-61
2024/03/11 10:27:21;;;;;;;3.53;1.35;;;;;;;;;;5025189;28;20022;-61
2024/03/11 10:29:47;;;;;;;4.18;1.60;;;;;;;;;;5026428;28;20030;-60
2024/03/11 10:32:30;;;;;;;5.05;1.40;;;;;;;;;;5024057;28;20614;-61
2024/03/11 10:34:56;;;;;;;3.08;1.10;;;;;;;;;;5015437;28;20042;-61
2024/03/11 10:37:21;;;;;;;3.78;1.23;;;;;;;;;;5019431;28;20084;-60
2024/03/11 10:39:48;;;;;;;3.65;1.30;;;;;;;;;;5014316;28;20474;-59
2024/03/11 10:42:23;;;;;;;3.17;1.00;;;;;;;;;;5012938;28;20029;-61
2024/03/11 10:44:49;;;;;;;3.00;1.00;;;;;;;;;;5014759;28;20024;-60
2024/03/11 10:47:14;;;;;;;2.83;0.90;;;;;;;;;;5015094;28;20018;-61
2024/03/11 10:49:40;;;;;;;5.93;3.00;;;;;;;;;;5020568;28;20472;-62
2024/03/11 10:52:07;;;;;;;;;;;;;;;;;;5024812;28;20018;-60
2024/03/11 10:54:36;;;;;;;12.73;7.05;;;;;;;;;;5013188;28;19909;-59
2024/03/11 10:57:07;;;;;;;12.40;7.03;;;;;;;;;;5014974;28;20439;-62
2024/03/11 10:59:34;;;;;;;11.32;6.88;;;;;;;;;;5014666;28;20022;-60
2024/03/11 11:02:04;;;;;;;10.57;6.95;;;;;;;;;;5015190;28;20033;-61
2024/03/11 11:04:33;;;;;;;11.85;6.60;;;;;;;;;;5021475;28;20094;-60
2024/03/11 11:06:58;;;;;;;12.45;7.25;;;;;;;;;;5017986;28;20021;-60
2024/03/11 11:09:27;;;;;;;11.48;6.68;;;;;;;;;;5015396;28;20022;-61
2024/03/11 11:11:54;;;;;;;10.77;6.75;;;;;;;;;;5015321;28;20025;-62
2024/03/11 11:14:19;;;;;;;;;;;;;;;;;;5014500;28;20021;-60
2024/03/11 11:16:45;;;;;;;9.43;5.32;;;;;;;;;;5014738;28;19910;-60
2024/03/11 11:19:14;;;;;;;9.38;5.22;;;;;;;;;;5015475;28;20536;-60
2024/03/11 11:21:43;;;;;;;8.30;4.68;;;;;;;;;;5015783;28;20474;-60
2024/03/11 11:24:28;;;;;;;9.13;5.20;;;;;;;;;;5020756;28;20026;-61
2024/03/11 11:26:57;;;;;;;8.15;4.80;;;;;;;;;;5021154;28;20010;-62
2024/03/11 11:29:24;;;;;;;8.40;4.85;;;;;;;;;;5028209;28;20097;-61
2024/03/11 11:31:58;;;;;;;7.50;4.32;;;;;;;;;;5026013;28;20022;-60
2024/03/11 11:34:44;;;;;;;9.57;4.60;;;;;;;;;;5019636;28;20054;-60
2024/03/11 11:37:09;;;;;;;8.45;4.45;;;;;;;;;;5011094;28;20036;-61
2024/03/11 11:39:35;;;;;;;7.47;4.30;;;;;;;;;;5013489;28;20030;-61
2024/03/11 11:42:00;;;;;;;9.55;5.15;;;;;;;;;;5011716;28;20026;-61
2024/03/11 11:44:25;;;;;;;7.93;3.70;;;;;;;;;;5013584;28;20077;-62
2024/03/11 11:46:51;;;;;;;7.28;3.90;;;;;;;;;;5014219;28;20048;-60
2024/03/11 11:49:20;;;;;;;6.35;3.17;;;;;;;;;;5014274;28;20459;-60
2024/03/11 11:51:46;;;;;;;2.15;0.80;;;;;;;;;;5014001;28;20489;-60
2024/03/11 11:54:25;;;;;;;2.97;0.68;;;;;;;;;;5012847;28;20124;-60
2024/03/11 11:56:51;;;;;;;2.05;0.65;;;;;;;;;;5022407;28;20031;-60
2024/03/11 11:59:20;;;;;;;3.08;0.70;;;;;;;;;;5021537;28;20045;-64
2024/03/11 12:01:46;;;;;;;2.40;0.70;;;;;;;;;;5016790;28;20041;-62
2024/03/11 12:04:11;;;;;;;2.38;0.60;;;;;;;;;;5017988;28;20572;-61
2024/03/11 12:06:37;;;;;;;2.47;0.60;;;;;;;;;;5024369;28;20493;-61
2024/03/11 12:09:12;;;;;;;2.10;0.57;;;;;;;;;;5021592;28;20085;-61
2024/03/11 12:11:40;;;;;;;2.38;0.65;;;;;;;;;;5019843;28;20093;-61
2024/03/11 12:14:09;;;;;;;3.30;0.68;;;;;;;;;;5014129;28;20021;-60
2024/03/11 12:16:34;;;;;;;1.33;0.50;;;;;;;;;;5014262;28;20025;-61
2024/03/11 12:19:05;;;;;;;3.20;0.67;;;;;;;;;;5013987;28;20033;-61
2024/03/11 12:21:31;;;;;;;1.45;0.60;;;;;;;;;;5015561;28;20034;-60
2024/03/11 12:23:56;;;;;;;1.95;0.52;;;;;;;;;;5012870;28;20079;-61
2024/03/11 12:26:23;;;;;;;1.70;0.57;;;;;;;;;;5012690;28;20097;-61
2024/03/11 12:29:22;;;;;;;1.48;0.50;;;;;;;;;;5012365;28;20030;-60
2024/03/11 12:31:57;;;;;;;1.00;0.50;;;;;;;;;;4981374;28;20453;-60
2024/03/11 12:34:25;;;;;;;1.00;0.43;;;;;;;;;;4999209;28;20041;-60
2024/03/11 12:36:52;;;;;;;1.88;0.60;;;;;;;;;;5012445;28;20410;-61
2024/03/11 12:39:25;;;;;;;1.40;0.50;;;;;;;;;;5012486;28;20029;-60
2024/03/11 12:41:50;;;;;;;2.65;0.60;;;;;;;;;;5013584;28;20036;-60
2024/03/11 12:44:19;;;;;;;1.37;0.50;;;;;;;;;;5014204;28;20070;-61
2024/03/11 12:46:45;;;;;;;1.85;0.60;;;;;;;;;;5015927;28;20167;-60
2024/03/11 12:49:11;;;;;;;1.73;0.70;;;;;;;;;;5013196;28;20038;-60
2024/03/11 12:51:37;;;;;;;2.20;0.60;;;;;;;;;;5020003;28;20022;-59
2024/03/11 12:54:10;;;;;;;1.60;0.60;;;;;;;;;;5013824;28;20040;-60
2024/03/11 12:56:36;;;;;;;1.70;0.57;;;;;;;;;;5007009;28;20017;-59
2024/03/11 12:59:05;;;;;;;3.53;0.65;;;;;;;;;;5012760;28;20018;-60
2024/03/11 13:01:30;;;;;;;1.10;0.50;;;;;;;;;;5012687;28;20030;-60
2024/03/11 13:03:56;;;;;;;0.80;0.40;;;;;;;;;;5013229;28;20014;-61
2024/03/11 13:06:22;;;;;;;1.33;0.60;;;;;;;;;;5011442;28;20861;-60
2024/03/11 13:08:49;;;;;;;1.48;0.55;;;;;;;;;;5014090;28;20038;-61
2024/03/11 13:11:16;;;;;;;1.98;0.60;;;;;;;;;;5013217;28;20025;-60
2024/03/11 13:13:41;;;;;;;2.20;0.57;;;;;;;;;;5013801;28;20371;-61
2024/03/11 13:16:09;;;;;;;3.55;0.55;;;;;;;;;;5016096;28;20021;-61
2024/03/11 13:18:35;;;;;;;2.53;0.68;;;;;;;;;;5016513;28;20045;-60
2024/03/11 13:21:06;;;;;;;1.52;0.50;;;;;;;;;;5011397;28;20482;-59
2024/03/11 13:23:32;;;;;;;1.23;0.57;;;;;;;;;;5012096;28;20025;-60
2024/03/11 13:25:58;;;;;;;3.75;1.10;;;;;;;;;;5011894;28;20548;-61
2024/03/11 13:28:23;;;;;;;2.05;0.68;;;;;;;;;;5011767;28;20524;-59
2024/03/11 13:30:49;;;;;;;2.27;0.60;;;;;;;;;;5011941;28;20364;-60
2024/03/11 13:33:15;;;;;;;1.63;0.47;;;;;;;;;;5012066;28;20022;-60
2024/03/11 13:35:40;;;;;;;1.58;0.60;;;;;;;;;;5012810;28;20112;-60
2024/03/11 13:38:07;;;;;;;2.10;0.70;;;;;;;;;;5015727;28;20108;-60
2024/03/11 13:40:33;;;;;;;1.25;0.50;;;;;;;;;;5011590;28;20022;-60
2024/03/11 13:42:58;;;;;;;;;;;;;;;;;;5012511;28;20125;-60
2024/03/11 13:45:24;;;;;;;1.67;0.57;;;;;;;;;;5012566;28;19958;-60
2024/03/11 13:47:50;;;;;;;3.00;0.77;;;;;;;;;;5013810;28;20030;-60
2024/03/11 13:50:16;;;;;;;2.30;0.60;;;;;;;;;;5004711;28;20122;-60
2024/03/11 13:52:46;;;;;;;1.23;0.60;;;;;;;;;;5014579;28;20018;-60
2024/03/11 13:55:12;;;;;;;2.15;0.70;;;;;;;;;;5010373;28;20064;-59
2024/03/11 13:57:37;;;;;;;1.75;0.60;;;;;;;;;;5022931;28;20104;-60
2024/03/11 14:00:03;;;;;;;1.83;0.60;;;;;;;;;;5020320;28;20033;-59
2024/03/11 14:02:28;;;;;;;1.75;0.60;;;;;;;;;;5017454;28;20033;-61
2024/03/11 14:04:54;;;;;;;1.77;0.60;;;;;;;;;;5016490;28;20080;-61
2024/03/11 14:07:20;;;;;;;2.70;0.70;;;;;;;;;;5016511;28;20033;-62
2024/03/11 14:09:45;;;;;;;1.80;0.60;;;;;;;;;;5020465;28;20089;-60
2024/03/11 14:12:11;;;;;;;1.87;0.80;;;;;;;;;;5016675;28;20806;-59
2024/03/11 14:14:36;;;;;;;2.05;0.80;;;;;;;;;;5017505;28;20984;-62
2024/03/11 14:17:02;;;;;;;2.07;0.70;;;;;;;;;;5005191;28;20117;-60
2024/03/11 14:19:27;;;;;;;3.05;0.65;;;;;;;;;;5014015;28;20053;-60
2024/03/11 14:21:52;;;;;;;1.88;0.50;;;;;;;;;;5012343;28;20536;-60
2024/03/11 14:24:19;;;;;;;1.77;0.60;;;;;;;;;;5016956;28;20036;-61